sensor_id;sensor_type;location;lat;lon;timestamp;P1;durP1;ratioP1;P2;durP2;ratioP2
25567;SDS011;13455;51.480;7.594;2022-12-07T00:00:49;58.55;;;36.63;;
25567;SDS011;13455;51.480;7.594;2022-12-07T00:03:15;56.60;;;36.08;;
25567;SDS011;13455;51.480;7.594;2022-12-07T00:05:41;51.63;;;35.15;;
25567;SDS011;13455;51.480;7.594;2022-12-07T00:08:07;52.90;;;35.03;;
25567;SDS011;13455;51.480;7.594;2022-12-07T00:10:33;56.38;;;35.90;;
25567;SDS011;13455;51.480;7.594;2022-12-07T00:12:59;55.47;;;37.23;;
25567;SDS011;13455;51.480;7.594;2022-12-07T00:15:25;56.15;;;37.10;;
25567;SDS011;13455;51.480;7.594;2022-12-07T00:17:51;53.55;;;36.33;;
25567;SDS011;13455;51.480;7.594;2022-12-07T00:20:17;57.28;;;37.13;;
25567;SDS011;13455;51.480;7.594;2022-12-07T00:22:43;60.90;;;38.70;;
25567;SDS011;13455;51.480;7.594;2022-12-07T00:25:09;56.60;;;37.72;;
25567;SDS011;13455;51.480;7.594;2022-12-07T00:27:35;58.58;;;37.50;;
25567;SDS011;13455;51.480;7.594;2022-12-07T00:30:01;55.07;;;36.90;;
25567;SDS011;13455;51.480;7.594;2022-12-07T00:32:27;56.60;;;37.40;;
25567;SDS011;13455;51.480;7.594;2022-12-07T00:34:53;55.93;;;36.30;;
25567;SDS011;13455;51.480;7.594;2022-12-07T00:37:19;59.60;;;37.25;;
25567;SDS011;13455;51.480;7.594;2022-12-07T00:39:46;58.85;;;37.45;;
25567;SDS011;13455;51.480;7.594;2022-12-07T00:42:12;56.42;;;37.47;;
25567;SDS011;13455;51.480;7.594;2022-12-07T00:44:38;57.10;;;37.60;;
25567;SDS011;13455;51.480;7.594;2022-12-07T00:47:04;56.53;;;36.50;;
25567;SDS011;13455;51.480;7.594;2022-12-07T00:49:30;53.42;;;36.30;;
25567;SDS011;13455;51.480;7.594;2022-12-07T00:51:56;54.22;;;36.55;;
25567;SDS011;13455;51.480;7.594;2022-12-07T00:54:21;54.95;;;35.47;;
25567;SDS011;13455;51.480;7.594;2022-12-07T00:56:47;52.73;;;35.60;;
25567;SDS011;13455;51.480;7.594;2022-12-07T00:59:13;55.83;;;35.30;;
25567;SDS011;13455;51.480;7.594;2022-12-07T01:01:40;53.20;;;34.55;;
25567;SDS011;13455;51.480;7.594;2022-12-07T01:04:06;57.35;;;33.97;;
25567;SDS011;13455;51.480;7.594;2022-12-07T01:06:32;53.53;;;34.97;;
25567;SDS011;13455;51.480;7.594;2022-12-07T01:08:58;55.72;;;35.38;;
25567;SDS011;13455;51.480;7.594;2022-12-07T01:11:25;53.88;;;35.13;;
25567;SDS011;13455;51.480;7.594;2022-12-07T01:13:52;53.53;;;35.35;;
25567;SDS011;13455;51.480;7.594;2022-12-07T01:16:19;57.33;;;35.85;;
25567;SDS011;13455;51.480;7.594;2022-12-07T01:18:46;52.13;;;35.63;;
25567;SDS011;13455;51.480;7.594;2022-12-07T01:21:16;52.53;;;34.85;;
25567;SDS011;13455;51.480;7.594;2022-12-07T01:23:43;53.75;;;35.63;;
25567;SDS011;13455;51.480;7.594;2022-12-07T01:26:10;49.95;;;33.65;;
25567;SDS011;13455;51.480;7.594;2022-12-07T01:28:37;48.20;;;33.28;;
25567;SDS011;13455;51.480;7.594;2022-12-07T01:31:06;47.95;;;32.58;;
25567;SDS011;13455;51.480;7.594;2022-12-07T01:33:33;46.70;;;31.85;;
25567;SDS011;13455;51.480;7.594;2022-12-07T01:36:03;45.53;;;30.52;;
25567;SDS011;13455;51.480;7.594;2022-12-07T01:38:30;43.30;;;30.27;;
25567;SDS011;13455;51.480;7.594;2022-12-07T01:40:56;47.97;;;30.13;;
25567;SDS011;13455;51.480;7.594;2022-12-07T01:43:23;41.47;;;29.90;;
25567;SDS011;13455;51.480;7.594;2022-12-07T01:45:50;45.05;;;30.08;;
25567;SDS011;13455;51.480;7.594;2022-12-07T01:48:19;41.13;;;29.67;;
25567;SDS011;13455;51.480;7.594;2022-12-07T01:50:48;46.50;;;30.47;;
25567;SDS011;13455;51.480;7.594;2022-12-07T01:53:14;46.40;;;30.83;;
25567;SDS011;13455;51.480;7.594;2022-12-07T01:55:42;46.95;;;31.60;;
25567;SDS011;13455;51.480;7.594;2022-12-07T01:58:09;48.33;;;32.10;;
25567;SDS011;13455;51.480;7.594;2022-12-07T02:00:37;45.40;;;31.67;;
25567;SDS011;13455;51.480;7.594;2022-12-07T02:05:29;47.87;;;31.50;;
25567;SDS011;13455;51.480;7.594;2022-12-07T02:07:55;48.83;;;32.57;;
25567;SDS011;13455;51.480;7.594;2022-12-07T02:10:23;46.20;;;32.38;;
25567;SDS011;13455;51.480;7.594;2022-12-07T02:12:54;48.77;;;32.57;;
25567;SDS011;13455;51.480;7.594;2022-12-07T02:15:22;44.00;;;30.67;;
25567;SDS011;13455;51.480;7.594;2022-12-07T02:20:39;46.97;;;31.13;;
25567;SDS011;13455;51.480;7.594;2022-12-07T02:31:04;42.40;;;29.17;;
25567;SDS011;13455;51.480;7.594;2022-12-07T02:33:33;46.35;;;29.00;;
25567;SDS011;13455;51.480;7.594;2022-12-07T02:36:04;44.70;;;29.63;;
25567;SDS011;13455;51.480;7.594;2022-12-07T02:41:04;47.42;;;30.77;;
25567;SDS011;13455;51.480;7.594;2022-12-07T02:43:34;45.10;;;30.92;;
25567;SDS011;13455;51.480;7.594;2022-12-07T02:46:08;45.53;;;31.17;;
25567;SDS011;13455;51.480;7.594;2022-12-07T02:48:35;45.10;;;31.33;;
25567;SDS011;13455;51.480;7.594;2022-12-07T02:51:03;48.33;;;31.13;;
25567;SDS011;13455;51.480;7.594;2022-12-07T02:55:55;46.43;;;30.60;;
25567;SDS011;13455;51.480;7.594;2022-12-07T03:00:52;42.80;;;29.20;;
25567;SDS011;13455;51.480;7.594;2022-12-07T03:03:20;42.58;;;28.75;;
25567;SDS011;13455;51.480;7.594;2022-12-07T03:06:09;42.67;;;28.55;;
25567;SDS011;13455;51.480;7.594;2022-12-07T03:24:34;42.00;;;27.73;;
25567;SDS011;13455;51.480;7.594;2022-12-07T03:27:03;40.90;;;27.10;;
25567;SDS011;13455;51.480;7.594;2022-12-07T03:29:34;41.72;;;28.42;;
25567;SDS011;13455;51.480;7.594;2022-12-07T03:32:06;40.20;;;28.13;;
25567;SDS011;13455;51.480;7.594;2022-12-07T03:34:36;39.20;;;27.65;;
25567;SDS011;13455;51.480;7.594;2022-12-07T03:37:06;42.03;;;27.50;;
25567;SDS011;13455;51.480;7.594;2022-12-07T03:39:35;37.55;;;26.67;;
25567;SDS011;13455;51.480;7.594;2022-12-07T03:42:03;42.05;;;27.38;;
25567;SDS011;13455;51.480;7.594;2022-12-07T03:44:30;39.95;;;26.48;;
25567;SDS011;13455;51.480;7.594;2022-12-07T03:49:41;39.73;;;26.33;;
25567;SDS011;13455;51.480;7.594;2022-12-07T03:54:57;37.50;;;25.03;;
25567;SDS011;13455;51.480;7.594;2022-12-07T03:57:25;40.03;;;25.30;;
25567;SDS011;13455;51.480;7.594;2022-12-07T03:59:51;36.28;;;24.20;;
25567;SDS011;13455;51.480;7.594;2022-12-07T04:02:19;34.72;;;24.45;;
25567;SDS011;13455;51.480;7.594;2022-12-07T04:04:45;38.25;;;25.20;;
25567;SDS011;13455;51.480;7.594;2022-12-07T04:07:11;35.55;;;25.10;;
25567;SDS011;13455;51.480;7.594;2022-12-07T04:09:37;36.92;;;24.58;;
25567;SDS011;13455;51.480;7.594;2022-12-07T04:12:03;37.17;;;25.08;;
25567;SDS011;13455;51.480;7.594;2022-12-07T04:14:30;37.97;;;25.48;;
25567;SDS011;13455;51.480;7.594;2022-12-07T04:16:56;41.65;;;26.33;;
25567;SDS011;13455;51.480;7.594;2022-12-07T04:19:24;40.70;;;26.40;;
25567;SDS011;13455;51.480;7.594;2022-12-07T04:21:50;41.47;;;26.63;;
25567;SDS011;13455;51.480;7.594;2022-12-07T04:24:16;40.38;;;27.40;;
25567;SDS011;13455;51.480;7.594;2022-12-07T04:26:42;41.17;;;27.58;;
25567;SDS011;13455;51.480;7.594;2022-12-07T04:29:09;41.43;;;26.80;;
25567;SDS011;13455;51.480;7.594;2022-12-07T04:31:35;40.77;;;26.87;;
25567;SDS011;13455;51.480;7.594;2022-12-07T04:34:02;41.03;;;25.65;;
25567;SDS011;13455;51.480;7.594;2022-12-07T04:36:28;38.45;;;25.17;;
25567;SDS011;13455;51.480;7.594;2022-12-07T04:38:54;35.72;;;24.27;;
25567;SDS011;13455;51.480;7.594;2022-12-07T04:41:20;39.22;;;25.23;;
25567;SDS011;13455;51.480;7.594;2022-12-07T04:43:57;40.47;;;25.77;;
25567;SDS011;13455;51.480;7.594;2022-12-07T04:46:23;39.78;;;25.02;;
25567;SDS011;13455;51.480;7.594;2022-12-07T04:48:50;38.88;;;24.25;;
25567;SDS011;13455;51.480;7.594;2022-12-07T04:51:18;39.05;;;25.45;;
25567;SDS011;13455;51.480;7.594;2022-12-07T04:53:44;38.03;;;24.42;;
25567;SDS011;13455;51.480;7.594;2022-12-07T04:56:10;35.28;;;24.10;;
25567;SDS011;13455;51.480;7.594;2022-12-07T04:58:36;34.57;;;23.53;;
25567;SDS011;13455;51.480;7.594;2022-12-07T05:01:02;37.53;;;24.27;;
25567;SDS011;13455;51.480;7.594;2022-12-07T05:03:28;37.60;;;23.05;;
25567;SDS011;13455;51.480;7.594;2022-12-07T05:05:54;36.63;;;22.00;;
25567;SDS011;13455;51.480;7.594;2022-12-07T05:08:20;35.38;;;22.20;;
25567;SDS011;13455;51.480;7.594;2022-12-07T05:10:48;34.13;;;21.87;;
25567;SDS011;13455;51.480;7.594;2022-12-07T05:13:14;35.17;;;21.93;;
25567;SDS011;13455;51.480;7.594;2022-12-07T05:15:40;33.03;;;21.50;;
25567;SDS011;13455;51.480;7.594;2022-12-07T05:18:08;31.88;;;21.48;;
25567;SDS011;13455;51.480;7.594;2022-12-07T05:20:35;31.20;;;20.73;;
25567;SDS011;13455;51.480;7.594;2022-12-07T05:23:01;34.83;;;21.45;;
25567;SDS011;13455;51.480;7.594;2022-12-07T05:25:27;33.88;;;21.15;;
25567;SDS011;13455;51.480;7.594;2022-12-07T05:27:54;33.38;;;21.00;;
25567;SDS011;13455;51.480;7.594;2022-12-07T05:30:20;31.80;;;20.35;;
25567;SDS011;13455;51.480;7.594;2022-12-07T05:32:46;35.78;;;20.45;;
25567;SDS011;13455;51.480;7.594;2022-12-07T05:35:12;33.42;;;20.88;;
25567;SDS011;13455;51.480;7.594;2022-12-07T05:37:38;33.83;;;21.23;;
25567;SDS011;13455;51.480;7.594;2022-12-07T05:40:04;35.33;;;20.73;;
25567;SDS011;13455;51.480;7.594;2022-12-07T05:42:31;30.60;;;19.30;;
25567;SDS011;13455;51.480;7.594;2022-12-07T05:44:57;28.70;;;19.85;;
25567;SDS011;13455;51.480;7.594;2022-12-07T05:47:23;32.83;;;19.90;;
25567;SDS011;13455;51.480;7.594;2022-12-07T05:49:49;33.00;;;20.58;;
25567;SDS011;13455;51.480;7.594;2022-12-07T05:52:15;36.23;;;20.67;;
25567;SDS011;13455;51.480;7.594;2022-12-07T05:54:41;33.92;;;20.70;;
25567;SDS011;13455;51.480;7.594;2022-12-07T05:57:07;33.47;;;20.83;;
25567;SDS011;13455;51.480;7.594;2022-12-07T05:59:33;34.88;;;21.35;;
25567;SDS011;13455;51.480;7.594;2022-12-07T06:02:00;36.40;;;21.50;;
25567;SDS011;13455;51.480;7.594;2022-12-07T06:04:28;37.20;;;21.30;;
25567;SDS011;13455;51.480;7.594;2022-12-07T06:06:55;34.17;;;21.55;;
25567;SDS011;13455;51.480;7.594;2022-12-07T06:09:21;36.77;;;21.87;;
25567;SDS011;13455;51.480;7.594;2022-12-07T06:11:47;39.20;;;22.77;;
25567;SDS011;13455;51.480;7.594;2022-12-07T06:14:32;34.20;;;21.15;;
25567;SDS011;13455;51.480;7.594;2022-12-07T06:16:58;37.13;;;20.90;;
25567;SDS011;13455;51.480;7.594;2022-12-07T06:19:24;33.58;;;20.25;;
25567;SDS011;13455;51.480;7.594;2022-12-07T06:21:50;36.07;;;20.13;;
25567;SDS011;13455;51.480;7.594;2022-12-07T06:24:17;34.15;;;19.40;;
25567;SDS011;13455;51.480;7.594;2022-12-07T06:26:43;34.17;;;20.13;;
25567;SDS011;13455;51.480;7.594;2022-12-07T06:29:09;35.70;;;20.55;;
25567;SDS011;13455;51.480;7.594;2022-12-07T06:31:35;33.40;;;19.58;;
25567;SDS011;13455;51.480;7.594;2022-12-07T06:34:03;35.00;;;20.20;;
25567;SDS011;13455;51.480;7.594;2022-12-07T06:36:29;34.78;;;20.58;;
25567;SDS011;13455;51.480;7.594;2022-12-07T06:38:55;35.08;;;20.15;;
25567;SDS011;13455;51.480;7.594;2022-12-07T06:41:21;36.97;;;20.35;;
25567;SDS011;13455;51.480;7.594;2022-12-07T06:43:47;36.47;;;20.33;;
25567;SDS011;13455;51.480;7.594;2022-12-07T06:46:14;34.55;;;20.40;;
25567;SDS011;13455;51.480;7.594;2022-12-07T06:48:40;34.97;;;20.13;;
25567;SDS011;13455;51.480;7.594;2022-12-07T06:51:06;34.75;;;19.63;;
25567;SDS011;13455;51.480;7.594;2022-12-07T06:53:33;34.37;;;19.83;;
25567;SDS011;13455;51.480;7.594;2022-12-07T06:55:59;36.20;;;20.23;;
25567;SDS011;13455;51.480;7.594;2022-12-07T06:58:25;31.65;;;19.77;;
25567;SDS011;13455;51.480;7.594;2022-12-07T07:00:51;31.48;;;19.52;;
25567;SDS011;13455;51.480;7.594;2022-12-07T07:03:17;33.47;;;19.90;;
25567;SDS011;13455;51.480;7.594;2022-12-07T07:05:43;31.45;;;19.13;;
25567;SDS011;13455;51.480;7.594;2022-12-07T07:08:10;35.85;;;19.70;;
25567;SDS011;13455;51.480;7.594;2022-12-07T07:10:36;34.85;;;19.92;;
25567;SDS011;13455;51.480;7.594;2022-12-07T07:13:02;32.50;;;19.80;;
25567;SDS011;13455;51.480;7.594;2022-12-07T07:15:28;35.00;;;19.93;;
25567;SDS011;13455;51.480;7.594;2022-12-07T07:17:54;36.60;;;19.70;;
25567;SDS011;13455;51.480;7.594;2022-12-07T07:20:20;33.60;;;19.07;;
25567;SDS011;13455;51.480;7.594;2022-12-07T07:22:47;34.50;;;19.67;;
25567;SDS011;13455;51.480;7.594;2022-12-07T07:25:13;35.38;;;19.65;;
25567;SDS011;13455;51.480;7.594;2022-12-07T07:27:39;34.15;;;18.73;;
25567;SDS011;13455;51.480;7.594;2022-12-07T07:30:05;29.63;;;18.95;;
25567;SDS011;13455;51.480;7.594;2022-12-07T07:32:32;35.22;;;19.25;;
25567;SDS011;13455;51.480;7.594;2022-12-07T07:34:58;32.28;;;19.20;;
25567;SDS011;13455;51.480;7.594;2022-12-07T07:37:24;32.28;;;18.25;;
25567;SDS011;13455;51.480;7.594;2022-12-07T07:39:50;33.40;;;18.25;;
25567;SDS011;13455;51.480;7.594;2022-12-07T07:42:16;29.10;;;18.02;;
25567;SDS011;13455;51.480;7.594;2022-12-07T07:44:42;29.65;;;17.90;;
25567;SDS011;13455;51.480;7.594;2022-12-07T07:47:08;32.17;;;17.65;;
25567;SDS011;13455;51.480;7.594;2022-12-07T07:49:34;28.02;;;16.65;;
25567;SDS011;13455;51.480;7.594;2022-12-07T07:52:00;29.90;;;17.27;;
25567;SDS011;13455;51.480;7.594;2022-12-07T07:54:26;30.67;;;17.40;;
25567;SDS011;13455;51.480;7.594;2022-12-07T07:56:52;29.13;;;16.75;;
25567;SDS011;13455;51.480;7.594;2022-12-07T07:59:18;28.08;;;17.10;;
25567;SDS011;13455;51.480;7.594;2022-12-07T08:01:44;29.80;;;16.42;;
25567;SDS011;13455;51.480;7.594;2022-12-07T08:04:10;28.45;;;16.23;;
25567;SDS011;13455;51.480;7.594;2022-12-07T08:06:36;29.30;;;16.17;;
25567;SDS011;13455;51.480;7.594;2022-12-07T08:09:02;28.73;;;14.48;;
25567;SDS011;13455;51.480;7.594;2022-12-07T08:11:30;29.45;;;14.60;;
25567;SDS011;13455;51.480;7.594;2022-12-07T08:13:56;25.55;;;14.38;;
25567;SDS011;13455;51.480;7.594;2022-12-07T08:16:22;31.45;;;15.23;;
25567;SDS011;13455;51.480;7.594;2022-12-07T08:18:48;30.00;;;15.00;;
25567;SDS011;13455;51.480;7.594;2022-12-07T08:21:14;25.60;;;15.20;;
25567;SDS011;13455;51.480;7.594;2022-12-07T08:23:41;30.83;;;15.20;;
25567;SDS011;13455;51.480;7.594;2022-12-07T08:26:08;29.77;;;14.75;;
25567;SDS011;13455;51.480;7.594;2022-12-07T08:28:35;27.58;;;14.45;;
25567;SDS011;13455;51.480;7.594;2022-12-07T08:31:01;27.77;;;14.80;;
25567;SDS011;13455;51.480;7.594;2022-12-07T08:33:28;28.45;;;14.88;;
25567;SDS011;13455;51.480;7.594;2022-12-07T08:35:54;28.77;;;14.98;;
25567;SDS011;13455;51.480;7.594;2022-12-07T08:38:20;27.10;;;14.02;;
25567;SDS011;13455;51.480;7.594;2022-12-07T08:40:56;25.33;;;13.98;;
25567;SDS011;13455;51.480;7.594;2022-12-07T08:43:22;26.48;;;14.60;;
25567;SDS011;13455;51.480;7.594;2022-12-07T08:45:49;24.95;;;13.65;;
25567;SDS011;13455;51.480;7.594;2022-12-07T08:48:18;25.40;;;14.00;;
25567;SDS011;13455;51.480;7.594;2022-12-07T08:50:49;24.15;;;13.50;;
25567;SDS011;13455;51.480;7.594;2022-12-07T08:53:15;25.55;;;13.30;;
25567;SDS011;13455;51.480;7.594;2022-12-07T08:55:42;25.33;;;12.98;;
25567;SDS011;13455;51.480;7.594;2022-12-07T08:58:09;22.88;;;12.90;;
25567;SDS011;13455;51.480;7.594;2022-12-07T09:00:35;28.40;;;13.30;;
25567;SDS011;13455;51.480;7.594;2022-12-07T09:03:01;24.45;;;12.43;;
25567;SDS011;13455;51.480;7.594;2022-12-07T09:05:27;25.25;;;13.55;;
25567;SDS011;13455;51.480;7.594;2022-12-07T09:07:54;25.77;;;13.00;;
25567;SDS011;13455;51.480;7.594;2022-12-07T09:10:21;28.45;;;13.35;;
25567;SDS011;13455;51.480;7.594;2022-12-07T09:12:48;29.98;;;12.65;;
25567;SDS011;13455;51.480;7.594;2022-12-07T09:15:14;26.38;;;12.45;;
25567;SDS011;13455;51.480;7.594;2022-12-07T09:17:40;22.45;;;12.10;;
25567;SDS011;13455;51.480;7.594;2022-12-07T09:20:06;26.75;;;11.77;;
25567;SDS011;13455;51.480;7.594;2022-12-07T09:22:32;25.48;;;11.82;;
25567;SDS011;13455;51.480;7.594;2022-12-07T09:24:59;22.63;;;11.38;;
25567;SDS011;13455;51.480;7.594;2022-12-07T09:27:25;22.40;;;11.55;;
25567;SDS011;13455;51.480;7.594;2022-12-07T09:29:51;23.90;;;12.10;;
25567;SDS011;13455;51.480;7.594;2022-12-07T09:32:17;26.02;;;12.13;;
25567;SDS011;13455;51.480;7.594;2022-12-07T09:34:43;23.52;;;11.65;;
25567;SDS011;13455;51.480;7.594;2022-12-07T09:37:09;21.63;;;12.07;;
25567;SDS011;13455;51.480;7.594;2022-12-07T09:39:38;23.45;;;12.18;;
25567;SDS011;13455;51.480;7.594;2022-12-07T09:42:05;20.85;;;12.52;;
25567;SDS011;13455;51.480;7.594;2022-12-07T09:44:32;22.17;;;12.27;;
25567;SDS011;13455;51.480;7.594;2022-12-07T09:46:58;25.60;;;12.93;;
25567;SDS011;13455;51.480;7.594;2022-12-07T09:49:25;22.83;;;13.48;;
25567;SDS011;13455;51.480;7.594;2022-12-07T09:52:03;25.85;;;13.20;;
25567;SDS011;13455;51.480;7.594;2022-12-07T09:54:44;25.52;;;13.27;;
25567;SDS011;13455;51.480;7.594;2022-12-07T09:57:11;23.85;;;13.70;;
25567;SDS011;13455;51.480;7.594;2022-12-07T09:59:37;29.58;;;13.45;;
25567;SDS011;13455;51.480;7.594;2022-12-07T10:04:48;24.95;;;12.95;;
25567;SDS011;13455;51.480;7.594;2022-12-07T10:07:14;21.88;;;13.10;;
25567;SDS011;13455;51.480;7.594;2022-12-07T10:09:40;26.57;;;13.53;;
25567;SDS011;13455;51.480;7.594;2022-12-07T10:12:08;23.17;;;13.47;;
25567;SDS011;13455;51.480;7.594;2022-12-07T10:14:37;25.02;;;13.15;;
25567;SDS011;13455;51.480;7.594;2022-12-07T10:17:20;29.35;;;14.23;;
25567;SDS011;13455;51.480;7.594;2022-12-07T10:19:49;28.70;;;14.38;;
25567;SDS011;13455;51.480;7.594;2022-12-07T10:22:15;25.48;;;14.20;;
25567;SDS011;13455;51.480;7.594;2022-12-07T10:24:42;30.13;;;14.13;;
25567;SDS011;13455;51.480;7.594;2022-12-07T10:27:56;22.92;;;14.23;;
25567;SDS011;13455;51.480;7.594;2022-12-07T10:29:58;25.98;;;13.68;;
25567;SDS011;13455;51.480;7.594;2022-12-07T10:32:30;25.63;;;14.60;;
25567;SDS011;13455;51.480;7.594;2022-12-07T10:37:41;27.13;;;14.82;;
25567;SDS011;13455;51.480;7.594;2022-12-07T10:40:23;27.38;;;15.45;;
25567;SDS011;13455;51.480;7.594;2022-12-07T10:43:00;29.25;;;16.30;;
25567;SDS011;13455;51.480;7.594;2022-12-07T10:45:26;31.05;;;16.92;;
25567;SDS011;13455;51.480;7.594;2022-12-07T11:01:16;29.60;;;18.65;;
25567;SDS011;13455;51.480;7.594;2022-12-07T11:03:34;31.75;;;18.48;;
25567;SDS011;13455;51.480;7.594;2022-12-07T11:11:14;27.05;;;16.73;;
25567;SDS011;13455;51.480;7.594;2022-12-07T11:21:33;24.27;;;14.90;;
25567;SDS011;13455;51.480;7.594;2022-12-07T11:24:06;25.00;;;15.17;;
25567;SDS011;13455;51.480;7.594;2022-12-07T11:26:45;27.93;;;16.23;;
25567;SDS011;13455;51.480;7.594;2022-12-07T11:29:40;28.10;;;15.02;;
25567;SDS011;13455;51.480;7.594;2022-12-07T11:32:23;23.25;;;13.65;;
25567;SDS011;13455;51.480;7.594;2022-12-07T11:37:33;25.10;;;13.05;;
25567;SDS011;13455;51.480;7.594;2022-12-07T11:40:00;27.35;;;12.40;;
25567;SDS011;13455;51.480;7.594;2022-12-07T11:42:29;20.13;;;11.77;;
25567;SDS011;13455;51.480;7.594;2022-12-07T11:45:02;23.07;;;11.80;;
25567;SDS011;13455;51.480;7.594;2022-12-07T11:50:03;25.10;;;12.27;;
25567;SDS011;13455;51.480;7.594;2022-12-07T11:55:18;19.67;;;10.27;;
25567;SDS011;13455;51.480;7.594;2022-12-07T11:58:00;23.73;;;9.88;;
25567;SDS011;13455;51.480;7.594;2022-12-07T12:00:35;20.58;;;10.15;;
25567;SDS011;13455;51.480;7.594;2022-12-07T12:03:03;33.60;;;10.38;;
25567;SDS011;13455;51.480;7.594;2022-12-07T12:05:36;22.20;;;9.95;;
25567;SDS011;13455;51.480;7.594;2022-12-07T12:08:18;20.98;;;10.50;;
25567;SDS011;13455;51.480;7.594;2022-12-07T12:21:44;18.98;;;10.15;;
25567;SDS011;13455;51.480;7.594;2022-12-07T12:24:18;18.37;;;9.23;;
25567;SDS011;13455;51.480;7.594;2022-12-07T12:26:51;21.00;;;9.40;;
25567;SDS011;13455;51.480;7.594;2022-12-07T12:29:23;19.67;;;8.32;;
25567;SDS011;13455;51.480;7.594;2022-12-07T12:32:16;17.85;;;8.30;;
25567;SDS011;13455;51.480;7.594;2022-12-07T12:42:46;15.32;;;7.55;;
25567;SDS011;13455;51.480;7.594;2022-12-07T12:47:52;15.60;;;6.70;;
25567;SDS011;13455;51.480;7.594;2022-12-07T12:50:28;15.82;;;6.78;;
25567;SDS011;13455;51.480;7.594;2022-12-07T12:52:55;15.30;;;6.80;;
25567;SDS011;13455;51.480;7.594;2022-12-07T12:55:31;16.40;;;6.32;;
25567;SDS011;13455;51.480;7.594;2022-12-07T13:00:45;12.60;;;5.30;;
25567;SDS011;13455;51.480;7.594;2022-12-07T13:03:22;13.57;;;5.10;;
25567;SDS011;13455;51.480;7.594;2022-12-07T13:05:53;11.15;;;5.20;;
25567;SDS011;13455;51.480;7.594;2022-12-07T13:08:36;12.77;;;5.00;;
25567;SDS011;13455;51.480;7.594;2022-12-07T13:11:19;12.30;;;4.60;;
25567;SDS011;13455;51.480;7.594;2022-12-07T13:13:45;13.63;;;4.77;;
25567;SDS011;13455;51.480;7.594;2022-12-07T13:18:37;11.85;;;4.68;;
25567;SDS011;13455;51.480;7.594;2022-12-07T13:34:49;15.95;;;3.80;;
25567;SDS011;13455;51.480;7.594;2022-12-07T13:39:57;12.10;;;3.23;;
25567;SDS011;13455;51.480;7.594;2022-12-07T13:42:41;11.70;;;3.60;;
25567;SDS011;13455;51.480;7.594;2022-12-07T13:45:20;9.43;;;3.22;;
25567;SDS011;13455;51.480;7.594;2022-12-07T13:48:37;9.20;;;2.92;;
25567;SDS011;13455;51.480;7.594;2022-12-07T13:51:22;9.93;;;2.70;;
25567;SDS011;13455;51.480;7.594;2022-12-07T13:53:53;13.25;;;2.85;;
25567;SDS011;13455;51.480;7.594;2022-12-07T13:56:33;11.57;;;3.13;;
25567;SDS011;13455;51.480;7.594;2022-12-07T13:59:00;9.77;;;3.00;;
25567;SDS011;13455;51.480;7.594;2022-12-07T14:01:26;10.30;;;3.07;;
25567;SDS011;13455;51.480;7.594;2022-12-07T14:03:52;13.18;;;3.20;;
25567;SDS011;13455;51.480;7.594;2022-12-07T14:06:25;13.30;;;3.10;;
25567;SDS011;13455;51.480;7.594;2022-12-07T14:09:26;10.80;;;3.20;;
25567;SDS011;13455;51.480;7.594;2022-12-07T14:11:46;10.20;;;3.20;;
25567;SDS011;13455;51.480;7.594;2022-12-07T14:14:16;9.80;;;3.03;;
25567;SDS011;13455;51.480;7.594;2022-12-07T14:16:54;11.57;;;3.28;;
25567;SDS011;13455;51.480;7.594;2022-12-07T14:19:50;14.55;;;3.83;;
25567;SDS011;13455;51.480;7.594;2022-12-07T14:22:30;12.43;;;3.37;;
25567;SDS011;13455;51.480;7.594;2022-12-07T14:27:38;12.13;;;3.33;;
25567;SDS011;13455;51.480;7.594;2022-12-07T14:30:15;10.25;;;3.20;;
25567;SDS011;13455;51.480;7.594;2022-12-07T14:32:43;17.23;;;3.70;;
25567;SDS011;13455;51.480;7.594;2022-12-07T14:35:13;9.57;;;3.00;;
25567;SDS011;13455;51.480;7.594;2022-12-07T14:37:41;15.43;;;3.80;;
25567;SDS011;13455;51.480;7.594;2022-12-07T14:40:12;16.05;;;3.80;;
25567;SDS011;13455;51.480;7.594;2022-12-07T14:42:43;11.45;;;3.60;;
25567;SDS011;13455;51.480;7.594;2022-12-07T14:45:15;13.07;;;3.58;;
25567;SDS011;13455;51.480;7.594;2022-12-07T14:47:42;11.82;;;3.92;;
25567;SDS011;13455;51.480;7.594;2022-12-07T14:50:10;9.90;;;3.55;;
25567;SDS011;13455;51.480;7.594;2022-12-07T14:52:38;11.35;;;3.30;;
25567;SDS011;13455;51.480;7.594;2022-12-07T14:55:04;8.85;;;3.15;;
25567;SDS011;13455;51.480;7.594;2022-12-07T14:57:37;11.23;;;3.55;;
25567;SDS011;13455;51.480;7.594;2022-12-07T15:00:03;9.20;;;3.60;;
25567;SDS011;13455;51.480;7.594;2022-12-07T15:02:29;11.90;;;3.80;;
25567;SDS011;13455;51.480;7.594;2022-12-07T15:04:54;11.20;;;3.90;;
25567;SDS011;13455;51.480;7.594;2022-12-07T15:07:20;8.67;;;3.60;;
25567;SDS011;13455;51.480;7.594;2022-12-07T15:09:47;9.77;;;3.40;;
25567;SDS011;13455;51.480;7.594;2022-12-07T15:12:13;8.98;;;3.00;;
25567;SDS011;13455;51.480;7.594;2022-12-07T15:14:39;9.05;;;2.80;;
25567;SDS011;13455;51.480;7.594;2022-12-07T15:17:05;8.43;;;3.08;;
25567;SDS011;13455;51.480;7.594;2022-12-07T15:19:31;6.93;;;3.10;;
25567;SDS011;13455;51.480;7.594;2022-12-07T15:21:57;8.07;;;3.00;;
25567;SDS011;13455;51.480;7.594;2022-12-07T15:24:23;7.70;;;2.63;;
25567;SDS011;13455;51.480;7.594;2022-12-07T15:26:49;7.10;;;2.60;;
25567;SDS011;13455;51.480;7.594;2022-12-07T15:29:14;5.82;;;2.50;;
25567;SDS011;13455;51.480;7.594;2022-12-07T15:31:41;5.95;;;2.65;;
25567;SDS011;13455;51.480;7.594;2022-12-07T15:34:07;5.83;;;2.83;;
25567;SDS011;13455;51.480;7.594;2022-12-07T15:36:34;7.30;;;3.40;;
25567;SDS011;13455;51.480;7.594;2022-12-07T15:39:00;7.22;;;3.45;;
25567;SDS011;13455;51.480;7.594;2022-12-07T15:41:27;11.48;;;3.72;;
25567;SDS011;13455;51.480;7.594;2022-12-07T15:43:52;9.97;;;3.50;;
25567;SDS011;13455;51.480;7.594;2022-12-07T15:46:37;11.43;;;4.10;;
25567;SDS011;13455;51.480;7.594;2022-12-07T15:49:12;10.40;;;3.83;;
25567;SDS011;13455;51.480;7.594;2022-12-07T15:51:39;11.40;;;3.93;;
25567;SDS011;13455;51.480;7.594;2022-12-07T15:54:05;9.52;;;3.92;;
25567;SDS011;13455;51.480;7.594;2022-12-07T15:56:31;13.23;;;4.70;;
25567;SDS011;13455;51.480;7.594;2022-12-07T15:58:57;13.00;;;4.70;;
25567;SDS011;13455;51.480;7.594;2022-12-07T16:01:22;13.23;;;5.67;;
25567;SDS011;13455;51.480;7.594;2022-12-07T16:03:48;11.60;;;6.17;;
25567;SDS011;13455;51.480;7.594;2022-12-07T16:06:17;13.90;;;6.70;;
25567;SDS011;13455;51.480;7.594;2022-12-07T16:08:46;13.00;;;6.60;;
25567;SDS011;13455;51.480;7.594;2022-12-07T16:11:12;17.42;;;7.20;;
25567;SDS011;13455;51.480;7.594;2022-12-07T16:13:38;15.77;;;6.40;;
25567;SDS011;13455;51.480;7.594;2022-12-07T16:16:05;12.32;;;6.25;;
25567;SDS011;13455;51.480;7.594;2022-12-07T16:18:32;14.75;;;6.47;;
25567;SDS011;13455;51.480;7.594;2022-12-07T16:20:58;17.73;;;7.53;;
25567;SDS011;13455;51.480;7.594;2022-12-07T16:23:24;14.68;;;6.05;;
25567;SDS011;13455;51.480;7.594;2022-12-07T16:25:50;13.37;;;5.77;;
25567;SDS011;13455;51.480;7.594;2022-12-07T16:28:15;16.90;;;6.50;;
25567;SDS011;13455;51.480;7.594;2022-12-07T16:30:41;13.40;;;6.30;;
25567;SDS011;13455;51.480;7.594;2022-12-07T16:33:06;14.40;;;5.60;;
25567;SDS011;13455;51.480;7.594;2022-12-07T16:35:32;13.97;;;6.00;;
25567;SDS011;13455;51.480;7.594;2022-12-07T16:37:58;11.57;;;5.50;;
25567;SDS011;13455;51.480;7.594;2022-12-07T16:40:23;14.90;;;5.70;;